Time;durP1;ratioP1;P1;durP2;ratioP2;P2;SDS_P1;SDS_P2;PMS_P1;PMS_P2;Temp;Humidity;BMP_temperature;BMP_pressure;BME280_temperature;BME280_humidity;BME280_pressure;Samples;Min_cycle;Max_cycle;Signal;HPM_P1;HPM_P2
2021/10/10 00:01:40;;;;;;;22.80;13.73;;;7.70;99.90;;;;;;5100552;28;20453;-60
2021/10/10 00:04:08;;;;;;;22.30;13.77;;;7.70;99.90;;;;;;5094387;28;20476;-60
2021/10/10 00:06:37;;;;;;;23.57;14.33;;;7.70;99.90;;;;;;5095344;28;20515;-60
2021/10/10 00:09:05;;;;;;;24.57;15.27;;;7.70;99.90;;;;;;5094039;28;20513;-60
2021/10/10 00:11:32;;;;;;;25.90;14.70;;;7.70;99.90;;;;;;5093657;28;20452;-60
2021/10/10 00:13:59;;;;;;;21.67;13.00;;;7.70;99.90;;;;;;5094080;28;20946;-61
2021/10/10 00:16:26;;;;;;;21.60;12.90;;;7.70;99.90;;;;;;5111970;28;20452;-60
2021/10/10 00:18:53;;;;;;;23.00;14.50;;;7.50;99.90;;;;;;5105900;28;21012;-60
2021/10/10 00:21:20;;;;;;;21.90;13.77;;;7.50;99.90;;;;;;5096285;28;20859;-60
2021/10/10 00:23:48;;;;;;;23.80;14.07;;;7.40;99.90;;;;;;5112242;28;20481;-60
2021/10/10 00:26:15;;;;;;;27.20;14.10;;;7.50;99.90;;;;;;5112312;28;20866;-60
2021/10/10 00:28:42;;;;;;;24.60;14.10;;;7.50;99.90;;;;;;5114167;28;20484;-60
2021/10/10 00:31:09;;;;;;;25.07;14.57;;;7.50;99.90;;;;;;5104252;28;20830;-61
2021/10/10 00:33:37;;;;;;;22.70;13.00;;;7.40;99.90;;;;;;5102221;28;20515;-60
2021/10/10 00:36:04;;;;;;;26.70;14.20;;;7.40;99.90;;;;;;5114176;28;20971;-60
2021/10/10 00:38:31;;;;;;;26.10;15.67;;;7.30;99.90;;;;;;5113974;28;20548;-60
2021/10/10 00:40:59;;;;;;;25.17;15.00;;;7.30;99.90;;;;;;5097886;28;20943;-61
2021/10/10 00:43:26;;;;;;;25.60;14.67;;;7.20;99.90;;;;;;5093356;28;20450;-59
2021/10/10 00:45:54;;;;;;;26.90;15.60;;;7.30;99.90;;;;;;5093030;28;21004;-60
2021/10/10 00:48:20;;;;;;;25.37;15.17;;;7.30;99.90;;;;;;5092301;28;20527;-60
2021/10/10 00:50:48;;;;;;;21.67;13.80;;;7.30;99.90;;;;;;5092971;28;20446;-60
2021/10/10 00:53:17;;;;;;;24.50;14.90;;;7.30;99.90;;;;;;5094036;28;20506;-59
2021/10/10 00:55:46;;;;;;;25.30;15.17;;;7.30;99.90;;;;;;5106474;28;20456;-61
2021/10/10 00:58:16;;;;;;;21.33;13.50;;;7.30;99.90;;;;;;5113406;28;20466;-59
2021/10/10 01:00:43;;;;;;;24.60;13.57;;;7.30;99.90;;;;;;5098450;28;20445;-60
2021/10/10 01:03:10;;;;;;;26.67;15.50;;;7.20;99.90;;;;;;5092039;28;20450;-60
2021/10/10 01:05:37;;;;;;;26.00;15.10;;;7.20;99.90;;;;;;5099652;28;20483;-59
2021/10/10 01:08:05;;;;;;;23.90;14.47;;;7.20;99.90;;;;;;5092935;28;20545;-61
2021/10/10 01:10:36;;;;;;;25.00;14.50;;;7.10;99.90;;;;;;5098716;28;20450;-59
2021/10/10 01:13:03;;;;;;;23.97;15.13;;;7.10;99.90;;;;;;5092020;28;20450;-60
2021/10/10 01:15:33;;;;;;;25.80;14.67;;;7.00;99.90;;;;;;5092995;28;20442;-60
2021/10/10 01:18:00;;;;;;;25.43;15.10;;;7.00;99.90;;;;;;5100964;28;20472;-60
2021/10/10 01:20:28;;;;;;;25.60;14.80;;;7.00;99.90;;;;;;5098426;28;20454;-60
2021/10/10 01:22:56;;;;;;;27.90;15.03;;;7.00;99.90;;;;;;5083051;28;20492;-60
2021/10/10 01:25:23;;;;;;;26.37;14.30;;;6.90;99.90;;;;;;5102933;28;20481;-60
2021/10/10 01:27:51;;;;;;;23.97;14.30;;;6.90;99.90;;;;;;5112836;28;20817;-60
2021/10/10 01:30:17;;;;;;;27.13;15.13;;;6.90;99.90;;;;;;5102389;28;20450;-60
2021/10/10 01:32:54;;;;;;;26.30;15.20;;;6.90;99.90;;;;;;5084994;28;20502;-60
2021/10/10 01:35:21;;;;;;;24.67;14.40;;;7.00;99.90;;;;;;5075649;28;20439;-60
2021/10/10 01:37:48;;;;;;;21.73;13.50;;;7.00;99.90;;;;;;5092341;28;20477;-60
2021/10/10 01:40:16;;;;;;;27.60;15.47;;;7.00;99.90;;;;;;5091612;28;20516;-60
2021/10/10 01:42:43;;;;;;;23.47;14.30;;;6.90;99.90;;;;;;5091630;28;21006;-60
2021/10/10 01:45:15;;;;;;;25.27;15.07;;;6.80;99.90;;;;;;5092393;28;20478;-60
2021/10/10 01:47:42;;;;;;;24.07;14.43;;;6.80;99.90;;;;;;5092197;28;20464;-59
2021/10/10 01:50:10;;;;;;;28.40;14.60;;;6.80;99.90;;;;;;5091642;28;20680;-62
2021/10/10 01:52:38;;;;;;;26.57;15.40;;;6.80;99.90;;;;;;5091117;28;20503;-60
2021/10/10 01:55:05;;;;;;;24.80;14.50;;;6.80;99.90;;;;;;5092334;28;20499;-60
2021/10/10 01:57:34;;;;;;;21.60;14.00;;;6.80;99.90;;;;;;5091932;28;20519;-60
2021/10/10 02:00:01;;;;;;;24.33;14.73;;;6.80;99.90;;;;;;5103300;28;20525;-60
2021/10/10 02:02:28;;;;;;;23.50;14.03;;;6.50;99.90;;;;;;5102817;28;20498;-60
2021/10/10 02:04:55;;;;;;;22.57;13.70;;;6.50;99.90;;;;;;5091058;28;20523;-60
2021/10/10 02:07:22;;;;;;;23.00;13.80;;;6.60;99.90;;;;;;5091665;28;20978;-60
2021/10/10 02:09:48;;;;;;;21.20;12.80;;;6.70;99.90;;;;;;5092136;28;20449;-59
2021/10/10 02:12:15;;;;;;;22.20;13.57;;;6.70;99.90;;;;;;5091057;28;20497;-61
2021/10/10 02:14:44;;;;;;;24.23;14.47;;;6.70;99.90;;;;;;5095174;28;20507;-60
2021/10/10 02:17:11;;;;;;;22.80;13.20;;;6.70;99.90;;;;;;5095866;28;20461;-60
2021/10/10 02:19:38;;;;;;;20.80;13.20;;;6.70;99.90;;;;;;5105850;28;20502;-60
2021/10/10 02:22:05;;;;;;;24.30;14.63;;;6.70;99.90;;;;;;5113446;28;20440;-60
2021/10/10 02:24:32;;;;;;;20.77;13.23;;;6.60;99.90;;;;;;5071542;28;20485;-60
2021/10/10 02:26:59;;;;;;;24.73;13.83;;;6.60;99.90;;;;;;5079997;28;20473;-60
2021/10/10 02:29:26;;;;;;;24.30;14.20;;;6.60;99.90;;;;;;5092450;28;20461;-60
2021/10/10 02:31:55;;;;;;;24.27;13.33;;;6.50;99.90;;;;;;5091299;28;20450;-60
2021/10/10 02:34:22;;;;;;;20.20;12.87;;;6.30;99.90;;;;;;5071204;28;20952;-60
2021/10/10 02:36:49;;;;;;;19.87;12.50;;;6.30;99.90;;;;;;5071610;28;20462;-60
2021/10/10 02:39:16;;;;;;;19.90;11.97;;;6.40;99.90;;;;;;5090066;28;20830;-60
2021/10/10 02:41:43;;;;;;;22.13;12.57;;;6.40;99.90;;;;;;5090775;28;20442;-59
2021/10/10 02:44:11;;;;;;;20.63;12.70;;;6.40;99.90;;;;;;5091478;28;20886;-60
2021/10/10 02:46:38;;;;;;;23.03;13.80;;;6.40;99.90;;;;;;5091476;28;20505;-61
2021/10/10 02:49:06;;;;;;;22.40;11.70;;;6.40;99.90;;;;;;5092645;28;20446;-59
2021/10/10 02:51:33;;;;;;;21.00;12.30;;;6.40;99.90;;;;;;5092387;28;20450;-60
2021/10/10 02:54:00;;;;;;;23.17;12.70;;;6.40;99.90;;;;;;5090462;28;20450;-61
2021/10/10 02:56:27;;;;;;;20.60;12.13;;;6.40;99.90;;;;;;5083969;28;20451;-60
2021/10/10 02:58:54;;;;;;;17.97;11.80;;;6.40;99.90;;;;;;5071172;28;20451;-60
2021/10/10 03:01:21;;;;;;;17.50;10.70;;;6.40;99.90;;;;;;5089576;28;20511;-60
2021/10/10 03:03:48;;;;;;;21.63;12.70;;;6.50;99.90;;;;;;5087424;28;20454;-60
2021/10/10 03:06:16;;;;;;;22.37;13.20;;;6.40;99.90;;;;;;5091385;28;20563;-61
2021/10/10 03:08:43;;;;;;;24.13;12.50;;;6.30;99.90;;;;;;5091458;28;20453;-60
2021/10/10 03:11:11;;;;;;;21.40;13.63;;;6.40;99.90;;;;;;5094303;28;20506;-61
2021/10/10 03:13:38;;;;;;;23.30;13.10;;;6.40;99.90;;;;;;5083866;28;20943;-60
2021/10/10 03:16:05;;;;;;;22.57;13.70;;;6.40;99.90;;;;;;5094470;28;20442;-60
2021/10/10 03:18:32;;;;;;;20.03;13.33;;;6.30;99.90;;;;;;5095159;28;20846;-60
2021/10/10 03:20:59;;;;;;;22.63;13.93;;;6.30;99.90;;;;;;5094906;28;20446;-60
2021/10/10 03:23:27;;;;;;;23.27;13.10;;;6.30;99.90;;;;;;5093779;28;20959;-60
2021/10/10 03:25:54;;;;;;;21.23;12.90;;;6.30;99.90;;;;;;5094928;28;20618;-60
2021/10/10 03:28:21;;;;;;;23.07;13.40;;;6.30;99.90;;;;;;5101115;28;21054;-60
2021/10/10 03:30:48;;;;;;;20.40;12.50;;;6.30;99.90;;;;;;5115001;28;20453;-59
2021/10/10 03:33:15;;;;;;;23.33;13.10;;;6.20;99.90;;;;;;5088943;28;20964;-60
2021/10/10 03:35:42;;;;;;;21.50;13.20;;;6.20;99.90;;;;;;5100020;28;20445;-60
2021/10/10 03:38:09;;;;;;;24.13;13.67;;;6.10;99.90;;;;;;5079311;28;20910;-60
2021/10/10 03:40:39;;;;;;;20.13;12.97;;;6.10;99.90;;;;;;5094452;28;20859;-60
2021/10/10 03:43:06;;;;;;;20.07;13.07;;;6.10;99.90;;;;;;5092649;28;20507;-60
2021/10/10 03:45:33;;;;;;;19.00;12.13;;;6.10;99.90;;;;;;5094519;28;20481;-59
2021/10/10 03:48:00;;;;;;;22.10;13.53;;;6.10;99.90;;;;;;5094508;28;20470;-60
2021/10/10 03:50:30;;;;;;;19.13;11.80;;;6.00;99.90;;;;;;5094207;28;20499;-60
2021/10/10 03:52:57;;;;;;;22.10;12.90;;;6.00;99.90;;;;;;5084695;28;20507;-60
2021/10/10 03:55:35;;;;;;;22.17;13.07;;;6.00;99.90;;;;;;5074414;28;20438;-60
2021/10/10 03:58:04;;;;;;;26.80;13.53;;;5.90;99.90;;;;;;5091288;28;20473;-60
2021/10/10 04:00:35;;;;;;;19.80;12.17;;;6.00;99.90;;;;;;5091469;28;20537;-60
2021/10/10 04:03:05;;;;;;;18.70;11.60;;;6.00;99.90;;;;;;5094146;28;20473;-60
2021/10/10 04:05:40;;;;;;;21.53;12.80;;;6.00;99.90;;;;;;5093858;28;20543;-60
2021/10/10 04:08:07;;;;;;;21.07;12.00;;;6.10;99.90;;;;;;5088948;28;20499;-60
2021/10/10 04:10:36;;;;;;;20.23;12.40;;;6.10;99.90;;;;;;5101236;28;20495;-60
2021/10/10 04:13:06;;;;;;;20.80;12.40;;;6.20;99.90;;;;;;5114588;28;20440;-60
2021/10/10 04:15:35;;;;;;;19.53;11.60;;;6.20;99.90;;;;;;5098273;28;20447;-61
2021/10/10 04:18:02;;;;;;;21.37;12.70;;;6.30;99.90;;;;;;5093540;28;20485;-61
2021/10/10 04:20:32;;;;;;;20.20;12.27;;;6.30;99.90;;;;;;5093810;28;20582;-60
2021/10/10 04:22:58;;;;;;;19.93;11.50;;;6.40;99.90;;;;;;5109495;28;20461;-59
2021/10/10 04:25:25;;;;;;;20.50;12.67;;;6.50;99.90;;;;;;5114303;28;20554;-61
2021/10/10 04:27:53;;;;;;;24.20;12.73;;;6.50;99.90;;;;;;5099104;28;20478;-60
2021/10/10 04:30:21;;;;;;;19.23;12.00;;;6.40;99.90;;;;;;5113879;28;20957;-60
2021/10/10 04:32:48;;;;;;;23.70;12.20;;;6.50;99.90;;;;;;5102303;28;20475;-60
2021/10/10 04:35:15;;;;;;;19.50;11.60;;;6.60;99.90;;;;;;5093797;28;20442;-60
2021/10/10 04:37:43;;;;;;;19.40;11.33;;;6.50;99.90;;;;;;5093658;28;20473;-60
2021/10/10 04:40:11;;;;;;;22.37;13.30;;;6.60;99.90;;;;;;5097403;28;20479;-61
2021/10/10 04:42:39;;;;;;;22.83;12.90;;;6.70;99.90;;;;;;5113915;27;20448;-61
2021/10/10 04:45:07;;;;;;;19.70;12.17;;;6.80;99.90;;;;;;5111994;28;21039;-59
2021/10/10 04:47:36;;;;;;;16.00;11.00;;;6.80;99.90;;;;;;5097609;28;20470;-61
2021/10/10 04:50:03;;;;;;;23.07;12.80;;;6.80;99.90;;;;;;5101787;28;20531;-60
2021/10/10 04:52:31;;;;;;;18.60;11.20;;;6.90;99.90;;;;;;5099895;28;20446;-60
2021/10/10 04:54:58;;;;;;;19.40;11.57;;;7.00;99.90;;;;;;5093259;28;20787;-60
2021/10/10 04:57:25;;;;;;;19.27;12.70;;;7.10;99.90;;;;;;5093116;28;20967;-60
2021/10/10 04:59:52;;;;;;;19.97;12.00;;;7.10;99.90;;;;;;5093135;28;20920;-60
2021/10/10 05:02:20;;;;;;;18.57;11.30;;;7.20;99.90;;;;;;5093376;28;20450;-60
2021/10/10 05:04:49;;;;;;;20.07;12.00;;;7.20;99.90;;;;;;5072855;28;20444;-60
2021/10/10 05:07:17;;;;;;;18.70;12.30;;;7.30;99.90;;;;;;5072799;28;20470;-60
2021/10/10 05:09:45;;;;;;;20.67;12.33;;;7.40;99.90;;;;;;5072680;28;20455;-61
2021/10/10 05:12:12;;;;;;;21.67;12.97;;;7.40;99.90;;;;;;5077521;28;20442;-60
2021/10/10 05:14:40;;;;;;;22.37;13.47;;;7.40;99.90;;;;;;5081669;28;20507;-60
2021/10/10 05:17:07;;;;;;;20.00;13.17;;;7.30;99.90;;;;;;5108836;28;20468;-60
2021/10/10 05:19:34;;;;;;;18.60;12.10;;;7.30;99.90;;;;;;5099395;27;20452;-60
2021/10/10 05:22:03;;;;;;;20.03;12.87;;;7.30;99.90;;;;;;5092393;28;20948;-61
2021/10/10 05:24:30;;;;;;;19.03;12.90;;;7.40;99.90;;;;;;5092776;28;20460;-60
2021/10/10 05:26:58;;;;;;;22.87;13.57;;;7.40;99.90;;;;;;5112802;28;20561;-61
2021/10/10 05:29:25;;;;;;;24.60;13.90;;;7.50;99.90;;;;;;5112819;28;20447;-60
2021/10/10 05:31:52;;;;;;;19.87;12.50;;;7.50;99.90;;;;;;5102025;28;20509;-60
2021/10/10 05:34:19;;;;;;;20.23;13.10;;;7.50;99.90;;;;;;5112425;27;20494;-61
2021/10/10 05:36:46;;;;;;;20.37;12.80;;;7.60;99.90;;;;;;5094214;28;20522;-60
2021/10/10 05:39:14;;;;;;;17.47;11.10;;;7.50;99.90;;;;;;5092330;28;20450;-60
2021/10/10 05:41:41;;;;;;;21.67;12.30;;;7.60;99.90;;;;;;5092202;28;20881;-61
2021/10/10 05:44:08;;;;;;;18.00;12.30;;;7.60;99.90;;;;;;5092493;28;20442;-60
2021/10/10 05:46:35;;;;;;;21.43;13.20;;;7.60;99.90;;;;;;5111754;28;20488;-60
2021/10/10 05:49:02;;;;;;;17.47;12.60;;;7.60;99.90;;;;;;5112670;28;20449;-60
2021/10/10 05:51:29;;;;;;;22.07;13.70;;;7.70;99.90;;;;;;5100408;28;20813;-60
2021/10/10 05:53:56;;;;;;;17.93;12.10;;;7.80;99.90;;;;;;5091542;28;20501;-60
2021/10/10 05:56:24;;;;;;;16.83;12.00;;;7.80;99.90;;;;;;5092130;28;20441;-60
2021/10/10 05:58:56;;;;;;;17.80;12.00;;;7.90;99.90;;;;;;5093309;28;20818;-60
2021/10/10 06:01:23;;;;;;;19.83;12.70;;;7.90;99.90;;;;;;5092903;28;20943;-60
2021/10/10 06:03:50;;;;;;;19.23;11.80;;;7.90;99.90;;;;;;5093362;28;20517;-61
2021/10/10 06:06:17;;;;;;;19.33;12.27;;;7.90;99.90;;;;;;5101960;28;20526;-60
2021/10/10 06:08:44;;;;;;;17.60;12.40;;;8.00;99.90;;;;;;5087069;28;20996;-60
2021/10/10 06:11:11;;;;;;;16.33;11.43;;;7.90;99.90;;;;;;5088604;28;20451;-60
2021/10/10 06:13:39;;;;;;;17.70;11.53;;;7.90;99.90;;;;;;5092140;28;20449;-61
2021/10/10 06:16:07;;;;;;;19.40;12.33;;;7.90;99.90;;;;;;5093791;28;20508;-60
2021/10/10 06:18:34;;;;;;;16.27;10.87;;;7.90;99.90;;;;;;5112151;28;20530;-60
2021/10/10 06:21:01;;;;;;;20.67;12.87;;;7.90;99.90;;;;;;5093594;27;20445;-60
2021/10/10 06:23:28;;;;;;;19.90;11.97;;;8.00;99.90;;;;;;5099314;28;20894;-60
2021/10/10 06:25:55;;;;;;;22.20;12.77;;;7.90;99.90;;;;;;5095673;28;21194;-59
2021/10/10 06:28:22;;;;;;;19.43;12.37;;;7.90;99.90;;;;;;5107079;28;20532;-59
2021/10/10 06:30:52;;;;;;;23.83;12.93;;;7.90;99.90;;;;;;5091306;28;20445;-60
2021/10/10 06:33:19;;;;;;;19.90;12.53;;;8.00;99.90;;;;;;5091771;28;20450;-60
2021/10/10 06:35:46;;;;;;;22.00;14.10;;;8.10;99.90;;;;;;5091669;28;20442;-60
2021/10/10 06:38:12;;;;;;;21.10;12.27;;;8.00;99.90;;;;;;5091853;28;20461;-60
2021/10/10 06:40:40;;;;;;;23.53;14.73;;;8.00;99.90;;;;;;5091209;28;20522;-60
2021/10/10 06:43:07;;;;;;;19.90;11.80;;;8.00;99.90;;;;;;5091818;28;20485;-57
2021/10/10 06:45:37;;;;;;;17.50;12.30;;;8.10;99.90;;;;;;5093632;28;20542;-57
2021/10/10 06:48:06;;;;;;;19.20;12.60;;;8.20;99.90;;;;;;5075664;28;21259;-58
2021/10/10 06:50:35;;;;;;;26.10;13.10;;;8.20;99.90;;;;;;5095315;28;20445;-58
2021/10/10 06:53:02;;;;;;;20.73;13.40;;;8.30;99.90;;;;;;5095810;28;20453;-58
2021/10/10 06:55:29;;;;;;;23.97;14.00;;;8.30;99.90;;;;;;5102655;28;20442;-57
2021/10/10 06:57:56;;;;;;;21.10;13.50;;;8.30;99.90;;;;;;5095352;28;20473;-57
2021/10/10 07:00:24;;;;;;;16.60;11.27;;;8.40;99.90;;;;;;5095515;28;20441;-59
2021/10/10 07:02:51;;;;;;;18.37;12.60;;;8.40;99.90;;;;;;5096507;28;20943;-59
2021/10/10 07:05:19;;;;;;;20.20;13.00;;;8.40;99.90;;;;;;5095732;28;20449;-59
2021/10/10 07:07:46;;;;;;;19.70;13.83;;;8.40;99.90;;;;;;5106815;28;20514;-58
2021/10/10 07:10:13;;;;;;;20.27;13.20;;;8.40;99.90;;;;;;5094428;28;20948;-59
2021/10/10 07:12:40;;;;;;;18.53;12.97;;;8.40;99.90;;;;;;5095551;28;20495;-58
2021/10/10 07:15:10;;;;;;;21.60;13.67;;;8.50;99.90;;;;;;5095069;28;20441;-59
2021/10/10 07:17:37;;;;;;;20.03;13.47;;;8.60;99.90;;;;;;5094969;28;20523;-59
2021/10/10 07:20:09;;;;;;;23.03;14.17;;;8.50;99.90;;;;;;5096373;28;20495;-59
2021/10/10 07:22:45;;;;;;;19.97;12.60;;;8.50;99.90;;;;;;5094805;28;20457;-58
2021/10/10 07:25:13;;;;;;;21.63;14.20;;;8.60;99.90;;;;;;5095931;28;20457;-59
2021/10/10 07:27:43;;;;;;;25.17;14.43;;;8.60;99.90;;;;;;5094841;28;20922;-59
2021/10/10 07:30:12;;;;;;;25.33;13.50;;;8.60;99.90;;;;;;5095296;28;20445;-59
2021/10/10 07:32:39;;;;;;;26.10;14.70;;;8.60;99.90;;;;;;5094837;28;20492;-59
2021/10/10 07:35:08;;;;;;;30.87;16.53;;;8.70;99.90;;;;;;5097032;28;20446;-59
2021/10/10 07:37:37;;;;;;;33.90;16.63;;;8.70;99.90;;;;;;5094366;28;20457;-58
2021/10/10 07:40:05;;;;;;;31.43;16.70;;;8.60;99.90;;;;;;5098821;28;20445;-58
2021/10/10 07:42:32;;;;;;;42.53;19.00;;;8.30;99.90;;;;;;5094891;28;20457;-58
2021/10/10 07:45:06;;;;;;;39.40;19.00;;;8.20;99.90;;;;;;5095741;28;20506;-58
2021/10/10 07:47:47;;;;;;;32.90;18.70;;;8.10;99.90;;;;;;5101054;28;20737;-58
2021/10/10 07:50:14;;;;;;;38.10;20.20;;;8.00;99.90;;;;;;5099871;28;20540;-59
2021/10/10 07:52:43;;;;;;;35.40;18.63;;;8.10;99.90;;;;;;5114523;28;20474;-59
2021/10/10 07:55:10;;;;;;;35.90;18.70;;;8.10;99.90;;;;;;5092847;28;20499;-59
2021/10/10 07:57:37;;;;;;;34.43;17.27;;;8.20;99.90;;;;;;5085826;28;20477;-59
2021/10/10 08:00:06;;;;;;;36.47;18.50;;;8.20;99.90;;;;;;5082478;28;20470;-59
2021/10/10 08:02:33;;;;;;;30.83;16.47;;;8.10;99.90;;;;;;5082141;28;20463;-58
2021/10/10 08:05:00;;;;;;;29.53;15.53;;;8.20;99.90;;;;;;5083847;28;20514;-59
2021/10/10 08:07:27;;;;;;;24.77;14.77;;;8.20;99.90;;;;;;5080861;28;20998;-58
2021/10/10 08:09:57;;;;;;;27.97;13.60;;;8.30;99.90;;;;;;5081363;28;20497;-59
2021/10/10 08:12:24;;;;;;;25.00;13.17;;;8.40;99.90;;;;;;5075609;28;20450;-59
2021/10/10 08:14:51;;;;;;;25.07;14.07;;;8.40;99.90;;;;;;5083844;28;20445;-59
2021/10/10 08:17:18;;;;;;;22.80;12.73;;;8.40;99.90;;;;;;5089900;28;20480;-59
2021/10/10 08:19:45;;;;;;;33.50;15.53;;;8.40;99.90;;;;;;5091446;28;20956;-59
2021/10/10 08:22:12;;;;;;;32.10;15.97;;;8.30;99.90;;;;;;5072671;28;20507;-59
2021/10/10 08:24:39;;;;;;;30.27;17.80;;;8.20;99.90;;;;;;5076931;28;20444;-58
2021/10/10 08:27:07;;;;;;;27.50;15.73;;;8.30;99.90;;;;;;5082321;28;20234;-58
2021/10/10 08:29:34;;;;;;;28.50;16.07;;;8.50;99.90;;;;;;5079933;28;20476;-58
2021/10/10 08:32:01;;;;;;;30.90;17.40;;;8.40;99.90;;;;;;5092188;28;20454;-58
2021/10/10 08:34:28;;;;;;;35.10;18.47;;;8.20;99.90;;;;;;5089196;28;20871;-59
2021/10/10 08:36:55;;;;;;;33.23;18.77;;;8.00;99.90;;;;;;5088306;28;20470;-58
2021/10/10 08:39:24;;;;;;;35.17;18.50;;;7.80;99.90;;;;;;5086227;28;20987;-58
2021/10/10 08:41:54;;;;;;;35.27;17.97;;;7.90;99.90;;;;;;5084915;28;20831;-59
2021/10/10 08:44:28;;;;;;;32.40;18.10;;;7.90;99.90;;;;;;5088424;28;20489;-58
2021/10/10 08:47:01;;;;;;;35.73;18.20;;;8.00;99.90;;;;;;5090348;28;20577;-58
2021/10/10 08:49:28;;;;;;;37.30;18.53;;;7.90;99.90;;;;;;5085378;28;20466;-59
2021/10/10 08:51:55;;;;;;;35.43;17.50;;;7.80;99.90;;;;;;5085484;28;20457;-58
2021/10/10 08:54:22;;;;;;;35.60;18.60;;;7.80;99.90;;;;;;5087454;28;20516;-58
2021/10/10 08:56:50;;;;;;;38.73;18.47;;;7.80;99.90;;;;;;5078262;28;20482;-59
2021/10/10 08:59:20;;;;;;;34.90;18.50;;;7.90;99.90;;;;;;5083245;28;20523;-59
2021/10/10 09:01:49;;;;;;;37.20;18.93;;;7.90;99.90;;;;;;5092722;28;20457;-59
2021/10/10 09:04:16;;;;;;;42.17;19.53;;;7.90;99.90;;;;;;5085376;28;20834;-59
2021/10/10 09:06:43;;;;;;;39.93;18.97;;;8.00;99.90;;;;;;5086324;28;20550;-59
2021/10/10 09:09:29;;;;;;;34.40;18.40;;;7.90;99.90;;;;;;5085247;28;20460;-59
2021/10/10 09:12:01;;;;;;;36.07;19.33;;;7.90;99.90;;;;;;5078193;28;20528;-58
2021/10/10 09:14:28;;;;;;;39.50;19.10;;;7.90;99.90;;;;;;5081408;28;20450;-58
2021/10/10 09:17:10;;;;;;;43.47;20.93;;;7.80;99.90;;;;;;5079092;28;20507;-59
2021/10/10 09:19:37;;;;;;;48.77;22.13;;;7.80;99.90;;;;;;5071673;28;20549;-59
2021/10/10 09:22:06;;;;;;;45.13;20.37;;;7.90;99.90;;;;;;5072276;28;20503;-59
2021/10/10 09:24:34;;;;;;;39.70;19.27;;;7.90;99.90;;;;;;5076386;28;20525;-59
2021/10/10 09:27:05;;;;;;;34.30;18.30;;;8.00;99.90;;;;;;5091182;28;20561;-58
2021/10/10 09:29:34;;;;;;;39.37;20.33;;;8.20;99.90;;;;;;5087822;28;20450;-59
2021/10/10 09:32:10;;;;;;;37.17;19.93;;;8.00;99.90;;;;;;5089431;28;20478;-58
2021/10/10 09:34:38;;;;;;;38.07;18.93;;;8.00;99.90;;;;;;5083993;28;20486;-58
2021/10/10 09:37:07;;;;;;;40.30;19.37;;;8.10;99.90;;;;;;5087706;28;20462;-59
2021/10/10 09:39:42;;;;;;;37.97;19.20;;;8.10;99.90;;;;;;5092271;28;20521;-58
2021/10/10 09:42:09;;;;;;;37.60;20.00;;;8.20;99.90;;;;;;5091733;28;20442;-59
2021/10/10 09:44:46;;;;;;;38.37;19.47;;;8.40;99.90;;;;;;5085247;28;20466;-59
2021/10/10 09:47:17;;;;;;;40.13;19.70;;;8.30;99.90;;;;;;5072603;28;20870;-59
2021/10/10 09:49:44;;;;;;;39.90;19.43;;;8.30;99.90;;;;;;5069842;28;20462;-59
2021/10/10 09:52:14;;;;;;;39.33;19.87;;;8.40;99.90;;;;;;5074574;28;20454;-59
2021/10/10 09:54:52;;;;;;;34.90;19.03;;;8.30;99.90;;;;;;5070139;28;20511;-59
2021/10/10 09:57:19;;;;;;;35.47;19.13;;;8.30;99.90;;;;;;5069217;28;21013;-58
2021/10/10 09:59:47;;;;;;;38.63;18.90;;;8.30;99.90;;;;;;5072549;28;20463;-59
2021/10/10 10:02:16;;;;;;;40.03;18.27;;;8.40;99.90;;;;;;5076764;28;20541;-59
2021/10/10 10:04:48;;;;;;;38.93;18.30;;;8.50;99.90;;;;;;5079462;28;20465;-59
2021/10/10 10:07:16;;;;;;;39.87;19.03;;;8.50;99.90;;;;;;5075714;28;20546;-59
2021/10/10 10:09:49;;;;;;;38.20;18.37;;;8.50;99.90;;;;;;5080811;28;20459;-59
2021/10/10 10:12:17;;;;;;;39.47;20.40;;;8.60;99.90;;;;;;5081266;28;20474;-60
2021/10/10 10:14:49;;;;;;;36.83;18.90;;;8.60;99.90;;;;;;5079066;28;20462;-60
2021/10/10 10:17:18;;;;;;;36.97;18.20;;;8.60;99.90;;;;;;5084995;28;20479;-59
2021/10/10 10:19:46;;;;;;;35.57;17.77;;;8.70;99.90;;;;;;5080958;28;20640;-59
2021/10/10 10:22:15;;;;;;;38.50;18.70;;;8.60;99.90;;;;;;5079157;28;20909;-59
2021/10/10 10:24:45;;;;;;;38.87;18.53;;;8.50;99.90;;;;;;5087153;28;20456;-59
2021/10/10 10:27:13;;;;;;;33.97;18.80;;;8.40;99.90;;;;;;5071344;28;20551;-59
2021/10/10 10:29:43;;;;;;;34.03;17.77;;;8.40;99.90;;;;;;5089517;28;20481;-59
2021/10/10 10:32:12;;;;;;;36.13;19.13;;;8.50;99.90;;;;;;5083315;28;20458;-58
2021/10/10 10:34:57;;;;;;;34.53;18.03;;;8.50;99.90;;;;;;5085382;28;20453;-59
2021/10/10 10:37:48;;;;;;;31.50;17.33;;;8.50;99.90;;;;;;5090355;28;20476;-59
2021/10/10 10:40:35;;;;;;;34.77;16.57;;;8.50;99.90;;;;;;5091343;28;20473;-59
2021/10/10 10:43:05;;;;;;;38.53;17.23;;;8.30;99.90;;;;;;5083064;28;20446;-59
2021/10/10 10:45:37;;;;;;;36.67;18.50;;;8.40;99.90;;;;;;5071480;28;20477;-59
2021/10/10 10:48:06;;;;;;;35.23;16.80;;;8.60;99.90;;;;;;5085711;28;20512;-58
2021/10/10 10:50:39;;;;;;;37.53;18.13;;;8.70;99.90;;;;;;5070939;28;20447;-59
2021/10/10 10:53:07;;;;;;;38.13;18.83;;;8.70;99.90;;;;;;5076909;28;20449;-59
2021/10/10 10:55:38;;;;;;;33.17;16.80;;;8.50;99.90;;;;;;5091343;28;20503;-59
2021/10/10 10:58:10;;;;;;;38.80;19.10;;;8.70;99.90;;;;;;5090715;28;21255;-58
2021/10/10 11:00:39;;;;;;;37.60;18.27;;;8.90;99.90;;;;;;5094250;28;20481;-60
2021/10/10 11:03:18;;;;;;;35.83;16.83;;;8.80;99.90;;;;;;5089925;28;21024;-59
2021/10/10 11:05:49;;;;;;;39.47;18.97;;;8.80;99.90;;;;;;5071014;28;20454;-59
2021/10/10 11:08:41;;;;;;;34.93;18.30;;;8.80;99.90;;;;;;5086555;28;20485;-59
2021/10/10 11:11:15;;;;;;;38.53;18.37;;;8.70;99.90;;;;;;5090993;28;20457;-59
2021/10/10 11:13:44;;;;;;;32.40;17.00;;;8.70;99.90;;;;;;5078734;28;20462;-59
2021/10/10 11:16:12;;;;;;;33.90;17.17;;;8.90;99.90;;;;;;5081054;28;20453;-59
2021/10/10 11:18:44;;;;;;;32.40;15.60;;;9.00;99.90;;;;;;5091191;28;20530;-58
2021/10/10 11:21:14;;;;;;;31.70;16.00;;;9.00;99.90;;;;;;5090916;28;20871;-58
2021/10/10 11:23:42;;;;;;;31.20;16.00;;;8.90;99.90;;;;;;5080855;28;20516;-58
2021/10/10 11:26:11;;;;;;;37.37;17.73;;;8.80;99.90;;;;;;5070826;28;20447;-58
2021/10/10 11:28:44;;;;;;;36.23;17.03;;;8.70;99.90;;;;;;5089687;28;20530;-58
2021/10/10 11:31:13;;;;;;;30.90;15.57;;;8.60;99.90;;;;;;5090981;28;20458;-58
2021/10/10 11:33:42;;;;;;;26.33;15.10;;;8.70;99.90;;;;;;5094687;28;20983;-58
2021/10/10 11:36:09;;;;;;;31.17;15.40;;;8.70;99.90;;;;;;5094824;28;20451;-57
2021/10/10 11:38:57;;;;;;;29.60;14.10;;;8.70;99.90;;;;;;5076070;28;20511;-58
2021/10/10 11:41:25;;;;;;;29.93;14.90;;;8.80;99.90;;;;;;5074089;28;20524;-58
2021/10/10 11:44:02;;;;;;;30.10;15.73;;;8.80;99.90;;;;;;5075442;28;20951;-58
2021/10/10 11:46:46;;;;;;;31.30;16.70;;;8.80;99.90;;;;;;5073178;28;20450;-58
2021/10/10 11:49:34;;;;;;;31.03;15.13;;;8.90;99.90;;;;;;5074371;28;20838;-58
2021/10/10 11:52:12;;;;;;;30.03;14.83;;;8.80;99.90;;;;;;5073854;28;20838;-58
2021/10/10 11:54:41;;;;;;;26.03;14.43;;;9.00;99.90;;;;;;5074053;28;20450;-58
2021/10/10 11:57:10;;;;;;;28.97;14.33;;;9.10;99.90;;;;;;5073805;28;20469;-58
2021/10/10 11:59:37;;;;;;;27.20;15.20;;;9.10;99.90;;;;;;5074250;28;20504;-58
2021/10/10 12:02:04;;;;;;;27.17;14.53;;;9.10;99.90;;;;;;5073643;28;20450;-57
2021/10/10 12:04:31;;;;;;;30.10;14.40;;;9.20;99.90;;;;;;5103290;28;20446;-57
2021/10/10 12:06:58;;;;;;;23.20;12.90;;;9.20;99.90;;;;;;5093174;28;20522;-58
2021/10/10 12:09:25;;;;;;;23.27;12.43;;;9.20;99.90;;;;;;5094554;28;20437;-58
2021/10/10 12:12:12;;;;;;;24.07;12.70;;;9.30;99.90;;;;;;5094032;28;20441;-58
2021/10/10 12:14:47;;;;;;;21.10;12.33;;;9.20;99.90;;;;;;5086191;28;20454;-58
2021/10/10 12:17:28;;;;;;;22.53;12.47;;;9.30;99.90;;;;;;5106069;28;20472;-57
2021/10/10 12:19:56;;;;;;;20.10;10.97;;;9.30;99.90;;;;;;5094075;28;20445;-57
2021/10/10 12:22:23;;;;;;;21.10;10.87;;;9.40;99.90;;;;;;5093921;28;20457;-57
2021/10/10 12:24:51;;;;;;;19.13;10.60;;;9.40;99.90;;;;;;5093588;28;20458;-58
2021/10/10 12:27:30;;;;;;;19.63;10.13;;;9.50;99.90;;;;;;5093065;28;20487;-58
2021/10/10 12:29:57;;;;;;;23.57;11.60;;;9.50;99.90;;;;;;5093827;28;20448;-57
2021/10/10 12:32:27;;;;;;;20.50;11.53;;;9.60;99.90;;;;;;5093744;28;20499;-57
2021/10/10 12:35:09;;;;;;;19.70;10.97;;;9.70;99.90;;;;;;5093465;28;21016;-58
2021/10/10 12:37:36;;;;;;;20.43;11.53;;;9.70;99.90;;;;;;5092530;28;20493;-58
2021/10/10 12:40:04;;;;;;;20.67;11.27;;;9.80;99.90;;;;;;5090887;28;20458;-58
2021/10/10 12:42:48;;;;;;;20.60;10.77;;;9.80;99.90;;;;;;5090685;28;20794;-57
2021/10/10 12:45:21;;;;;;;21.53;11.80;;;10.00;99.90;;;;;;5093851;28;20454;-58